Woodland Park, Indiana
Current Conditions -  °F | °C
As of 9:35 PM on Thursday 20 Nov 2014 (Local Time) from KANQ Reporting Station
Scattered Clouds Scattered Clouds  
Wind Chill: 11°   Ceiling: Unl
Heat Index: 21°   Visibility: 10mi
Dew Point: 10°   Wind: 9mph
Humidity: 63%   Direction: 280°W
Pressure: 30.11"   Gusts: NA
Location:  41.5677°N, 85.3125°W
Report Text: KANQ 210235Z AUTO 28008KT 10SM FEW040 SCT065 M06/M12 A3011 RMK
Loading
Personal Weather Stations






























Interactive Weather Map New forecast layout! Learn more

10-Day Weather Forecast

Advertisements
Track Severe Weather on mobile